Terminal Aerodrome Forecast
Issued by NWS

Home | Current Version | Previous Version | Text Only | Print | Product List | Glossary On
Versions: 1 2 3 4 5 6 7 8 9 10 11 12 13
870
FTPA31 PHFO 111120
TAFHKO
TAF
PHKO 111120Z 1112/1212 07006KT P6SM SKC
     FM112000 24008KT P6SM BKN060
     FM120400 21007KT P6SM BKN060
     FM120700 11005KT P6SM BKN060
      AMD NOT SKED=

USA.gov is the U.S. government's official web portal to all federal, state and local government web resources and services.